sensor_id;sensor_type;location;lat;lon;timestamp;pressure;altitude;pressure_sealevel;temperature;humidity
25430;BME280;13360;48.152;-1.788;2023-02-15T00:01:39;102407.63;;;7.41;100.00
25430;BME280;13360;48.152;-1.788;2023-02-15T00:04:06;102404.03;;;7.40;100.00
25430;BME280;13360;48.152;-1.788;2023-02-15T00:06:32;102408.69;;;7.40;100.00
25430;BME280;13360;48.152;-1.788;2023-02-15T00:08:58;102398.63;;;7.33;100.00
25430;BME280;13360;48.152;-1.788;2023-02-15T00:11:24;102401.88;;;7.30;100.00
25430;BME280;13360;48.152;-1.788;2023-02-15T00:16:43;102412.69;;;7.25;100.00
25430;BME280;13360;48.152;-1.788;2023-02-15T00:19:10;102424.53;;;7.26;100.00
25430;BME280;13360;48.152;-1.788;2023-02-15T00:21:37;102436.38;;;7.26;100.00
25430;BME280;13360;48.152;-1.788;2023-02-15T00:24:05;102444.84;;;7.25;100.00
25430;BME280;13360;48.152;-1.788;2023-02-15T00:26:31;102440.19;;;7.25;100.00
25430;BME280;13360;48.152;-1.788;2023-02-15T00:28:57;102435.75;;;7.24;100.00
25430;BME280;13360;48.152;-1.788;2023-02-15T00:31:27;102436.84;;;7.23;100.00
25430;BME280;13360;48.152;-1.788;2023-02-15T00:33:52;102442.34;;;7.23;100.00
25430;BME280;13360;48.152;-1.788;2023-02-15T00:36:17;102431.81;;;7.20;100.00
25430;BME280;13360;48.152;-1.788;2023-02-15T00:38:43;102432.88;;;7.19;100.00
25430;BME280;13360;48.152;-1.788;2023-02-15T00:41:09;102422.97;;;7.18;100.00
25430;BME280;13360;48.152;-1.788;2023-02-15T00:43:35;102427.84;;;7.16;100.00
25430;BME280;13360;48.152;-1.788;2023-02-15T00:46:01;102417.56;;;7.12;100.00
25430;BME280;13360;48.152;-1.788;2023-02-15T00:48:27;102418.88;;;7.09;100.00
25430;BME280;13360;48.152;-1.788;2023-02-15T00:50:55;102430.31;;;7.06;100.00
25430;BME280;13360;48.152;-1.788;2023-02-15T00:53:21;102430.72;;;7.10;100.00
25430;BME280;13360;48.152;-1.788;2023-02-15T00:55:47;102433.44;;;7.10;100.00
25430;BME280;13360;48.152;-1.788;2023-02-15T00:58:13;102422.06;;;7.06;100.00
25430;BME280;13360;48.152;-1.788;2023-02-15T01:00:40;102416.81;;;7.04;100.00
25430;BME280;13360;48.152;-1.788;2023-02-15T01:03:06;102414.53;;;7.01;100.00
25430;BME280;13360;48.152;-1.788;2023-02-15T01:05:32;102411.88;;;6.95;100.00
25430;BME280;13360;48.152;-1.788;2023-02-15T01:07:58;102412.34;;;6.92;100.00
25430;BME280;13360;48.152;-1.788;2023-02-15T01:10:23;102413.41;;;6.91;100.00
25430;BME280;13360;48.152;-1.788;2023-02-15T01:12:51;102423.81;;;6.89;100.00
25430;BME280;13360;48.152;-1.788;2023-02-15T01:15:17;102426.16;;;6.85;100.00
25430;BME280;13360;48.152;-1.788;2023-02-15T01:17:42;102425.91;;;6.87;100.00
25430;BME280;13360;48.152;-1.788;2023-02-15T01:20:11;102429.91;;;6.91;100.00
25430;BME280;13360;48.152;-1.788;2023-02-15T01:22:36;102427.63;;;6.88;100.00
25430;BME280;13360;48.152;-1.788;2023-02-15T01:25:02;102434.09;;;6.93;100.00
25430;BME280;13360;48.152;-1.788;2023-02-15T01:27:27;102426.06;;;6.92;100.00
25430;BME280;13360;48.152;-1.788;2023-02-15T01:29:55;102423.34;;;6.92;100.00
25430;BME280;13360;48.152;-1.788;2023-02-15T01:32:20;102426.53;;;6.89;100.00
25430;BME280;13360;48.152;-1.788;2023-02-15T01:34:46;102419.97;;;6.90;100.00
25430;BME280;13360;48.152;-1.788;2023-02-15T01:37:11;102423.16;;;6.87;100.00
25430;BME280;13360;48.152;-1.788;2023-02-15T01:39:36;102419.22;;;6.83;100.00
25430;BME280;13360;48.152;-1.788;2023-02-15T01:42:02;102418.00;;;6.79;100.00
25430;BME280;13360;48.152;-1.788;2023-02-15T01:44:47;102421.81;;;6.78;100.00
25430;BME280;13360;48.152;-1.788;2023-02-15T01:47:16;102423.97;;;6.76;100.00
25430;BME280;13360;48.152;-1.788;2023-02-15T01:49:43;102425.63;;;6.77;100.00
25430;BME280;13360;48.152;-1.788;2023-02-15T01:52:13;102428.59;;;6.75;100.00
25430;BME280;13360;48.152;-1.788;2023-02-15T01:54:40;102431.72;;;6.79;100.00
25430;BME280;13360;48.152;-1.788;2023-02-15T01:57:10;102422.19;;;6.81;100.00
25430;BME280;13360;48.152;-1.788;2023-02-15T01:59:39;102424.09;;;6.81;100.00
25430;BME280;13360;48.152;-1.788;2023-02-15T02:02:07;102419.44;;;6.81;100.00
25430;BME280;13360;48.152;-1.788;2023-02-15T02:04:48;102413.72;;;6.83;100.00
25430;BME280;13360;48.152;-1.788;2023-02-15T02:07:17;102413.72;;;6.83;100.00
25430;BME280;13360;48.152;-1.788;2023-02-15T02:09:44;102413.72;;;6.83;100.00
25430;BME280;13360;48.152;-1.788;2023-02-15T02:12:10;102405.47;;;6.83;100.00
25430;BME280;13360;48.152;-1.788;2023-02-15T02:14:37;102416.47;;;6.83;100.00
25430;BME280;13360;48.152;-1.788;2023-02-15T02:17:18;102414.56;;;6.83;100.00
25430;BME280;13360;48.152;-1.788;2023-02-15T02:20:16;102416.69;;;6.81;100.00
25430;BME280;13360;48.152;-1.788;2023-02-15T02:31:01;102418.69;;;6.74;100.00
25430;BME280;13360;48.152;-1.788;2023-02-15T02:33:47;102416.19;;;6.72;100.00
25430;BME280;13360;48.152;-1.788;2023-02-15T02:36:24;102419.75;;;6.73;100.00
25430;BME280;13360;48.152;-1.788;2023-02-15T02:38:58;102417.25;;;6.71;100.00
25430;BME280;13360;48.152;-1.788;2023-02-15T02:41:37;102420.00;;;6.71;100.00
25430;BME280;13360;48.152;-1.788;2023-02-15T02:44:21;102419.75;;;6.73;100.00
25430;BME280;13360;48.152;-1.788;2023-02-15T02:46:52;102424.66;;;6.71;100.00
25430;BME280;13360;48.152;-1.788;2023-02-15T02:50:06;102428.28;;;6.65;100.00
25430;BME280;13360;48.152;-1.788;2023-02-15T02:54:58;102418.63;;;6.62;100.00
25430;BME280;13360;48.152;-1.788;2023-02-15T02:57:26;102417.16;;;6.60;100.00
25430;BME280;13360;48.152;-1.788;2023-02-15T02:59:53;102409.41;;;6.57;100.00
25430;BME280;13360;48.152;-1.788;2023-02-15T03:02:24;102420.00;;;6.53;100.00
25430;BME280;13360;48.152;-1.788;2023-02-15T03:05:01;102418.09;;;6.54;100.00
25430;BME280;13360;48.152;-1.788;2023-02-15T03:07:30;102414.06;;;6.56;100.00
25430;BME280;13360;48.152;-1.788;2023-02-15T03:09:58;102421.22;;;6.57;100.00
25430;BME280;13360;48.152;-1.788;2023-02-15T03:12:31;102420.00;;;6.53;100.00
25430;BME280;13360;48.152;-1.788;2023-02-15T03:15:10;102414.97;;;6.50;100.00
25430;BME280;13360;48.152;-1.788;2023-02-15T03:17:41;102419.16;;;6.53;100.00
25430;BME280;13360;48.152;-1.788;2023-02-15T03:20:12;102417.25;;;6.53;100.00
25430;BME280;13360;48.152;-1.788;2023-02-15T03:22:44;102419.78;;;6.55;100.00
25430;BME280;13360;48.152;-1.788;2023-02-15T03:25:18;102416.19;;;6.54;100.00
25430;BME280;13360;48.152;-1.788;2023-02-15T03:27:46;102417.88;;;6.55;100.00
25430;BME280;13360;48.152;-1.788;2023-02-15T03:30:15;102400.19;;;6.51;100.00
25430;BME280;13360;48.152;-1.788;2023-02-15T03:32:44;102411.16;;;6.51;100.00
25430;BME280;13360;48.152;-1.788;2023-02-15T03:35:11;102411.63;;;6.48;100.00
25430;BME280;13360;48.152;-1.788;2023-02-15T03:37:47;102414.97;;;6.50;100.00
25430;BME280;13360;48.152;-1.788;2023-02-15T03:40:29;102413.06;;;6.51;100.00
25430;BME280;13360;48.152;-1.788;2023-02-15T03:43:41;102415.22;;;6.49;100.00
25430;BME280;13360;48.152;-1.788;2023-02-15T03:48:58;102402.94;;;6.51;100.00
25430;BME280;13360;48.152;-1.788;2023-02-15T03:51:29;102404.22;;;6.49;100.00
25430;BME280;13360;48.152;-1.788;2023-02-15T03:54:25;102407.63;;;6.44;100.00
25430;BME280;13360;48.152;-1.788;2023-02-15T03:57:29;102411.91;;;6.40;100.00
25430;BME280;13360;48.152;-1.788;2023-02-15T04:00:22;102403.06;;;6.38;100.00
25430;BME280;13360;48.152;-1.788;2023-02-15T04:05:57;102396.38;;;6.34;100.00
25430;BME280;13360;48.152;-1.788;2023-02-15T04:08:22;102389.44;;;6.31;100.00
25430;BME280;13360;48.152;-1.788;2023-02-15T04:11:08;102394.53;;;6.28;100.00
25430;BME280;13360;48.152;-1.788;2023-02-15T04:13:33;102402.59;;;6.23;100.00
25430;BME280;13360;48.152;-1.788;2023-02-15T04:15:59;102416.31;;;6.23;100.00
25430;BME280;13360;48.152;-1.788;2023-02-15T04:18:31;102414.63;;;6.22;100.00
25430;BME280;13360;48.152;-1.788;2023-02-15T04:21:16;102410.22;;;6.21;100.00
25430;BME280;13360;48.152;-1.788;2023-02-15T04:23:59;102412.97;;;6.21;100.00
25430;BME280;13360;48.152;-1.788;2023-02-15T04:26:43;102410.06;;;6.16;100.00
25430;BME280;13360;48.152;-1.788;2023-02-15T04:29:09;102412.34;;;6.19;100.00
25430;BME280;13360;48.152;-1.788;2023-02-15T04:31:34;102414.25;;;6.18;100.00
25430;BME280;13360;48.152;-1.788;2023-02-15T04:34:00;102409.00;;;6.17;100.00
25430;BME280;13360;48.152;-1.788;2023-02-15T04:36:25;102414.47;;;6.17;100.00
25430;BME280;13360;48.152;-1.788;2023-02-15T04:38:51;102415.16;;;6.12;100.00
25430;BME280;13360;48.152;-1.788;2023-02-15T04:41:16;102405.25;;;6.11;100.00
25430;BME280;13360;48.152;-1.788;2023-02-15T04:43:41;102401.06;;;6.08;100.00
25430;BME280;13360;48.152;-1.788;2023-02-15T04:46:07;102407.00;;;6.05;100.00
25430;BME280;13360;48.152;-1.788;2023-02-15T04:48:32;102407.00;;;6.05;100.00
25430;BME280;13360;48.152;-1.788;2023-02-15T04:50:57;102413.34;;;6.06;100.00
25430;BME280;13360;48.152;-1.788;2023-02-15T04:53:23;102405.09;;;6.06;100.00
25430;BME280;13360;48.152;-1.788;2023-02-15T04:55:48;102402.97;;;6.08;100.00
25430;BME280;13360;48.152;-1.788;2023-02-15T04:58:13;102402.75;;;6.09;100.00
25430;BME280;13360;48.152;-1.788;2023-02-15T05:00:38;102395.59;;;6.08;100.00
25430;BME280;13360;48.152;-1.788;2023-02-15T05:03:04;102397.72;;;6.06;100.00
25430;BME280;13360;48.152;-1.788;2023-02-15T05:05:29;102386.56;;;6.01;100.00
25430;BME280;13360;48.152;-1.788;2023-02-15T05:07:55;102395.63;;;6.02;100.00
25430;BME280;13360;48.152;-1.788;2023-02-15T05:10:20;102415.66;;;6.02;100.00
25430;BME280;13360;48.152;-1.788;2023-02-15T05:12:46;102415.84;;;6.07;100.00
25430;BME280;13360;48.152;-1.788;2023-02-15T05:15:12;102414.56;;;6.10;100.00
25430;BME280;13360;48.152;-1.788;2023-02-15T05:17:37;102415.84;;;6.07;100.00
25430;BME280;13360;48.152;-1.788;2023-02-15T05:20:04;102416.69;;;6.08;100.00
25430;BME280;13360;48.152;-1.788;2023-02-15T05:22:29;102415.00;;;6.07;100.00
25430;BME280;13360;48.152;-1.788;2023-02-15T05:24:54;102422.41;;;6.06;100.00
25430;BME280;13360;48.152;-1.788;2023-02-15T05:27:38;102415.84;;;6.07;100.00
25430;BME280;13360;48.152;-1.788;2023-02-15T05:30:22;102425.53;;;6.10;100.00
25430;BME280;13360;48.152;-1.788;2023-02-15T05:32:47;102425.91;;;6.14;100.00
25430;BME280;13360;48.152;-1.788;2023-02-15T05:35:14;102422.09;;;6.15;100.00
25430;BME280;13360;48.152;-1.788;2023-02-15T05:37:40;102426.75;;;6.14;100.00
25430;BME280;13360;48.152;-1.788;2023-02-15T05:40:06;102431.19;;;6.15;100.00
25430;BME280;13360;48.152;-1.788;2023-02-15T05:42:32;102434.75;;;6.16;100.00
25430;BME280;13360;48.152;-1.788;2023-02-15T05:44:57;102423.63;;;6.10;100.00
25430;BME280;13360;48.152;-1.788;2023-02-15T05:47:22;102428.06;;;6.11;100.00
25430;BME280;13360;48.152;-1.788;2023-02-15T05:49:48;102427.44;;;6.09;100.00
25430;BME280;13360;48.152;-1.788;2023-02-15T05:52:13;102433.16;;;6.08;100.00
25430;BME280;13360;48.152;-1.788;2023-02-15T05:54:38;102436.97;;;6.07;100.00
25430;BME280;13360;48.152;-1.788;2023-02-15T05:57:04;102440.53;;;6.07;100.00
25430;BME280;13360;48.152;-1.788;2023-02-15T05:59:29;102431.47;;;6.07;100.00
25430;BME280;13360;48.152;-1.788;2023-02-15T06:01:54;102442.91;;;6.04;100.00
25430;BME280;13360;48.152;-1.788;2023-02-15T06:04:20;102445.84;;;6.02;100.00
25430;BME280;13360;48.152;-1.788;2023-02-15T06:06:45;102449.88;;;6.00;100.00
25430;BME280;13360;48.152;-1.788;2023-02-15T06:09:13;102450.09;;;5.98;100.00
25430;BME280;13360;48.152;-1.788;2023-02-15T06:11:39;102447.81;;;5.95;100.00
25430;BME280;13360;48.152;-1.788;2023-02-15T06:14:04;102441.72;;;5.93;100.00
25430;BME280;13360;48.152;-1.788;2023-02-15T06:16:30;102434.78;;;5.91;100.00
25430;BME280;13360;48.152;-1.788;2023-02-15T06:18:55;102441.34;;;5.90;100.00
25430;BME280;13360;48.152;-1.788;2023-02-15T06:21:21;102439.25;;;5.85;100.00
25430;BME280;13360;48.152;-1.788;2023-02-15T06:23:46;102441.75;;;5.87;100.00
25430;BME280;13360;48.152;-1.788;2023-02-15T06:26:11;102449.16;;;5.86;100.00
25430;BME280;13360;48.152;-1.788;2023-02-15T06:28:37;102440.50;;;5.82;100.00
25430;BME280;13360;48.152;-1.788;2023-02-15T06:31:03;102445.16;;;5.82;100.00
25430;BME280;13360;48.152;-1.788;2023-02-15T06:33:28;102443.53;;;5.74;100.00
25430;BME280;13360;48.152;-1.788;2023-02-15T06:35:55;102457.00;;;5.76;100.00
25430;BME280;13360;48.152;-1.788;2023-02-15T06:38:22;102463.34;;;5.76;100.00
25430;BME280;13360;48.152;-1.788;2023-02-15T06:40:47;102457.47;;;5.73;100.00
25430;BME280;13360;48.152;-1.788;2023-02-15T06:43:12;102453.50;;;5.69;100.00
25430;BME280;13360;48.152;-1.788;2023-02-15T06:45:38;102460.03;;;5.68;100.00
25430;BME280;13360;48.152;-1.788;2023-02-15T06:48:03;102473.75;;;5.68;100.00
25430;BME280;13360;48.152;-1.788;2023-02-15T06:50:32;102461.94;;;5.67;100.00
25430;BME280;13360;48.152;-1.788;2023-02-15T06:52:58;102455.84;;;5.65;100.00
25430;BME280;13360;48.152;-1.788;2023-02-15T06:55:24;102460.28;;;5.66;100.00
25430;BME280;13360;48.152;-1.788;2023-02-15T06:57:49;102435.22;;;5.63;100.00
25430;BME280;13360;48.152;-1.788;2023-02-15T07:00:15;102429.31;;;5.59;100.00
25430;BME280;13360;48.152;-1.788;2023-02-15T07:02:40;102415.81;;;5.58;100.00
25430;BME280;13360;48.152;-1.788;2023-02-15T07:05:05;102419.63;;;5.57;100.00
25430;BME280;13360;48.152;-1.788;2023-02-15T07:07:31;102414.13;;;5.57;100.00
25430;BME280;13360;48.152;-1.788;2023-02-15T07:09:56;102411.41;;;5.57;100.00
25430;BME280;13360;48.152;-1.788;2023-02-15T07:12:21;102405.31;;;5.55;100.00
25430;BME280;13360;48.152;-1.788;2023-02-15T07:15:06;102406.16;;;5.55;100.00
25430;BME280;13360;48.152;-1.788;2023-02-15T07:17:33;102411.84;;;5.54;100.00
25430;BME280;13360;48.152;-1.788;2023-02-15T07:19:58;102394.19;;;5.49;100.00
25430;BME280;13360;48.152;-1.788;2023-02-15T07:22:24;102396.13;;;5.42;100.00
25430;BME280;13360;48.152;-1.788;2023-02-15T07:24:49;102408.78;;;5.43;100.00
25430;BME280;13360;48.152;-1.788;2023-02-15T07:27:15;102411.75;;;5.42;100.00
25430;BME280;13360;48.152;-1.788;2023-02-15T07:29:40;102427.97;;;5.43;100.00
25430;BME280;13360;48.152;-1.788;2023-02-15T07:32:05;102437.88;;;5.44;100.00
25430;BME280;13360;48.152;-1.788;2023-02-15T07:34:31;102438.69;;;5.45;100.00
25430;BME280;13360;48.152;-1.788;2023-02-15T07:36:56;102443.97;;;5.46;100.00
25430;BME280;13360;48.152;-1.788;2023-02-15T07:39:22;102453.63;;;5.49;100.00
25430;BME280;13360;48.152;-1.788;2023-02-15T07:41:47;102454.31;;;5.44;100.00
25430;BME280;13360;48.152;-1.788;2023-02-15T07:44:13;102471.16;;;5.48;100.00
25430;BME280;13360;48.152;-1.788;2023-02-15T07:46:39;102477.47;;;5.48;100.00
25430;BME280;13360;48.152;-1.788;2023-02-15T07:49:05;102491.16;;;5.48;100.00
25430;BME280;13360;48.152;-1.788;2023-02-15T07:51:30;102497.88;;;5.53;100.00
25430;BME280;13360;48.152;-1.788;2023-02-15T07:53:55;102494.91;;;5.54;100.00
25430;BME280;13360;48.152;-1.788;2023-02-15T07:56:21;102494.69;;;5.56;100.00
25430;BME280;13360;48.152;-1.788;2023-02-15T07:58:46;102503.53;;;5.58;100.00
25430;BME280;13360;48.152;-1.788;2023-02-15T08:01:30;102509.41;;;5.61;100.00
25430;BME280;13360;48.152;-1.788;2023-02-15T08:03:56;102506.25;;;5.64;100.00
25430;BME280;13360;48.152;-1.788;2023-02-15T08:06:24;102517.00;;;5.66;100.00
25430;BME280;13360;48.152;-1.788;2023-02-15T08:08:50;102529.03;;;5.65;100.00
25430;BME280;13360;48.152;-1.788;2023-02-15T08:18:55;102539.78;;;5.66;100.00
25430;BME280;13360;48.152;-1.788;2023-02-15T08:21:21;102544.16;;;5.74;100.00
25430;BME280;13360;48.152;-1.788;2023-02-15T08:23:47;102547.91;;;5.79;100.00
25430;BME280;13360;48.152;-1.788;2023-02-15T08:26:13;102553.59;;;5.85;100.00
25430;BME280;13360;48.152;-1.788;2023-02-15T08:28:39;102554.19;;;5.93;100.00
25430;BME280;13360;48.152;-1.788;2023-02-15T08:31:09;102555.16;;;6.05;100.00
25430;BME280;13360;48.152;-1.788;2023-02-15T08:33:36;102563.09;;;6.14;100.00
25430;BME280;13360;48.152;-1.788;2023-02-15T08:36:06;102570.88;;;6.17;100.00
25430;BME280;13360;48.152;-1.788;2023-02-15T08:38:32;102572.09;;;6.27;100.00
25430;BME280;13360;48.152;-1.788;2023-02-15T08:40:58;102580.41;;;6.39;100.00
25430;BME280;13360;48.152;-1.788;2023-02-15T08:43:23;102584.56;;;6.48;100.00
25430;BME280;13360;48.152;-1.788;2023-02-15T08:45:49;102591.22;;;6.59;100.00
25430;BME280;13360;48.152;-1.788;2023-02-15T08:48:14;102589.06;;;6.67;100.00
25430;BME280;13360;48.152;-1.788;2023-02-15T08:50:39;102602.03;;;6.79;100.00
25430;BME280;13360;48.152;-1.788;2023-02-15T08:53:05;102602.78;;;6.86;100.00
25430;BME280;13360;48.152;-1.788;2023-02-15T08:55:30;102610.75;;;6.94;100.00
25430;BME280;13360;48.152;-1.788;2023-02-15T08:57:56;102612.34;;;7.01;100.00
25430;BME280;13360;48.152;-1.788;2023-02-15T09:00:22;102606.16;;;7.06;100.00
25430;BME280;13360;48.152;-1.788;2023-02-15T09:02:48;102615.81;;;7.15;100.00
25430;BME280;13360;48.152;-1.788;2023-02-15T09:05:13;102621.22;;;7.22;100.00
25430;BME280;13360;48.152;-1.788;2023-02-15T09:07:38;102615.63;;;7.28;100.00
25430;BME280;13360;48.152;-1.788;2023-02-15T09:10:04;102632.44;;;7.39;100.00
25430;BME280;13360;48.152;-1.788;2023-02-15T09:12:30;102629.38;;;7.47;100.00
25430;BME280;13360;48.152;-1.788;2023-02-15T09:14:55;102626.94;;;7.57;100.00
25430;BME280;13360;48.152;-1.788;2023-02-15T09:17:21;102611.06;;;7.59;100.00
25430;BME280;13360;48.152;-1.788;2023-02-15T09:19:46;102602.09;;;7.63;100.00
25430;BME280;13360;48.152;-1.788;2023-02-15T09:22:11;102590.16;;;7.70;100.00
25430;BME280;13360;48.152;-1.788;2023-02-15T09:24:37;102601.34;;;7.86;100.00
25430;BME280;13360;48.152;-1.788;2023-02-15T09:27:02;102622.72;;;8.03;100.00
25430;BME280;13360;48.152;-1.788;2023-02-15T09:29:27;102620.38;;;8.18;100.00
25430;BME280;13360;48.152;-1.788;2023-02-15T09:31:53;102643.44;;;8.35;100.00
25430;BME280;13360;48.152;-1.788;2023-02-15T09:34:20;102623.09;;;8.36;100.00
25430;BME280;13360;48.152;-1.788;2023-02-15T09:36:46;102642.75;;;8.51;100.00
25430;BME280;13360;48.152;-1.788;2023-02-15T09:47:05;102675.38;;;9.25;100.00
25430;BME280;13360;48.152;-1.788;2023-02-15T10:00:40;102584.31;;;10.05;100.00
25430;BME280;13360;48.152;-1.788;2023-02-15T10:03:26;102593.28;;;10.12;100.00
25430;BME280;13360;48.152;-1.788;2023-02-15T10:06:23;102579.44;;;10.24;100.00
25430;BME280;13360;48.152;-1.788;2023-02-15T10:22:52;102573.25;;;10.50;100.00
25430;BME280;13360;48.152;-1.788;2023-02-15T10:28:19;102583.72;;;10.48;100.00
25430;BME280;13360;48.152;-1.788;2023-02-15T10:30:51;102585.91;;;10.46;100.00
25430;BME280;13360;48.152;-1.788;2023-02-15T10:33:34;102565.72;;;10.46;100.00
25430;BME280;13360;48.152;-1.788;2023-02-15T10:41:57;102626.84;;;10.49;100.00
25430;BME280;13360;48.152;-1.788;2023-02-15T10:44:41;102639.81;;;10.49;100.00
25430;BME280;13360;48.152;-1.788;2023-02-15T10:47:18;102645.34;;;10.49;100.00
25430;BME280;13360;48.152;-1.788;2023-02-15T10:50:09;102632.69;;;10.53;100.00
25430;BME280;13360;48.152;-1.788;2023-02-15T10:53:04;102654.81;;;10.53;100.00
25430;BME280;13360;48.152;-1.788;2023-02-15T10:59:06;102678.19;;;10.62;100.00
25430;BME280;13360;48.152;-1.788;2023-02-15T11:01:55;102642.28;;;10.62;100.00
25430;BME280;13360;48.152;-1.788;2023-02-15T11:07:11;102623.84;;;10.67;100.00
25430;BME280;13360;48.152;-1.788;2023-02-15T11:09:42;102598.38;;;10.65;100.00
25430;BME280;13360;48.152;-1.788;2023-02-15T11:12:16;102638.56;;;10.73;100.00
25430;BME280;13360;48.152;-1.788;2023-02-15T11:15:15;102705.75;;;10.90;100.00
25430;BME280;13360;48.152;-1.788;2023-02-15T11:17:49;102712.69;;;10.93;100.00
25430;BME280;13360;48.152;-1.788;2023-02-15T11:20:50;102734.75;;;11.05;100.00
25430;BME280;13360;48.152;-1.788;2023-02-15T11:23:17;102723.91;;;11.03;100.00
25430;BME280;13360;48.152;-1.788;2023-02-15T11:25:54;102718.63;;;11.02;100.00
25430;BME280;13360;48.152;-1.788;2023-02-15T11:28:25;102725.38;;;11.06;100.00
25430;BME280;13360;48.152;-1.788;2023-02-15T11:30:56;102728.72;;;11.08;100.00
25430;BME280;13360;48.152;-1.788;2023-02-15T11:33:33;102699.63;;;11.05;100.00
25430;BME280;13360;48.152;-1.788;2023-02-15T11:36:05;102670.78;;;11.01;100.00
25430;BME280;13360;48.152;-1.788;2023-02-15T11:38:33;102668.59;;;11.03;100.00
25430;BME280;13360;48.152;-1.788;2023-02-15T11:41:03;102677.78;;;11.04;100.00
25430;BME280;13360;48.152;-1.788;2023-02-15T11:46:11;102674.56;;;11.12;100.00
25430;BME280;13360;48.152;-1.788;2023-02-15T11:48:38;102670.13;;;11.11;100.00
25430;BME280;13360;48.152;-1.788;2023-02-15T11:51:04;102705.06;;;11.17;100.00
25430;BME280;13360;48.152;-1.788;2023-02-15T11:53:32;102726.78;;;11.25;100.00
25430;BME280;13360;48.152;-1.788;2023-02-15T11:56:00;102743.44;;;11.30;100.00
25430;BME280;13360;48.152;-1.788;2023-02-15T12:01:13;102741.78;;;11.29;100.00
25430;BME280;13360;48.152;-1.788;2023-02-15T12:03:50;102752.34;;;11.32;100.00
25430;BME280;13360;48.152;-1.788;2023-02-15T12:06:29;102742.94;;;11.33;100.00
25430;BME280;13360;48.152;-1.788;2023-02-15T12:09:01;102755.16;;;11.37;100.00
25430;BME280;13360;48.152;-1.788;2023-02-15T12:11:38;102764.06;;;11.39;100.00
25430;BME280;13360;48.152;-1.788;2023-02-15T12:14:10;102767.06;;;11.38;100.00
25430;BME280;13360;48.152;-1.788;2023-02-15T12:16:45;102786.53;;;11.43;100.00
25430;BME280;13360;48.152;-1.788;2023-02-15T12:21:50;102764.63;;;11.41;100.00
25430;BME280;13360;48.152;-1.788;2023-02-15T12:26:41;102760.53;;;11.44;100.00
25430;BME280;13360;48.152;-1.788;2023-02-15T12:29:16;102748.59;;;11.43;100.00
25430;BME280;13360;48.152;-1.788;2023-02-15T12:31:47;102763.06;;;11.45;100.00
25430;BME280;13360;48.152;-1.788;2023-02-15T12:34:21;102768.34;;;11.47;100.00
25430;BME280;13360;48.152;-1.788;2023-02-15T12:36:51;102799.75;;;11.57;100.00
25430;BME280;13360;48.152;-1.788;2023-02-15T12:39:30;102828.28;;;11.58;100.00
25430;BME280;13360;48.152;-1.788;2023-02-15T12:41:59;102831.28;;;11.56;100.00
25430;BME280;13360;48.152;-1.788;2023-02-15T12:44:33;102826.28;;;11.53;100.00
25430;BME280;13360;48.152;-1.788;2023-02-15T12:47:27;102831.88;;;11.58;100.00
25430;BME280;13360;48.152;-1.788;2023-02-15T12:52:29;102835.50;;;11.59;100.00
25430;BME280;13360;48.152;-1.788;2023-02-15T12:54:55;102827.63;;;11.51;100.00
25430;BME280;13360;48.152;-1.788;2023-02-15T12:57:34;102833.16;;;11.51;100.00
25430;BME280;13360;48.152;-1.788;2023-02-15T13:00:04;102858.41;;;11.54;100.00
25430;BME280;13360;48.152;-1.788;2023-02-15T13:05:51;102882.47;;;11.54;100.00
25430;BME280;13360;48.152;-1.788;2023-02-15T13:10:43;102891.94;;;11.58;100.00
25430;BME280;13360;48.152;-1.788;2023-02-15T13:13:24;102911.06;;;11.59;100.00
25430;BME280;13360;48.152;-1.788;2023-02-15T13:15:52;102918.34;;;11.66;100.00
25430;BME280;13360;48.152;-1.788;2023-02-15T13:18:34;102918.13;;;11.67;100.00
25430;BME280;13360;48.152;-1.788;2023-02-15T13:21:26;102924.75;;;11.66;100.00
25430;BME280;13360;48.152;-1.788;2023-02-15T13:23:53;102920.66;;;11.69;100.00
25430;BME280;13360;48.152;-1.788;2023-02-15T13:26:23;102925.34;;;11.68;100.00
25430;BME280;13360;48.152;-1.788;2023-02-15T13:28:56;102937.09;;;11.75;100.00
25430;BME280;13360;48.152;-1.788;2023-02-15T13:31:26;102932.13;;;11.77;100.00
25430;BME280;13360;48.152;-1.788;2023-02-15T13:33:55;102945.13;;;11.77;100.00
25430;BME280;13360;48.152;-1.788;2023-02-15T13:36:33;102949.94;;;11.81;100.00
25430;BME280;13360;48.152;-1.788;2023-02-15T13:39:26;102958.56;;;11.85;100.00
25430;BME280;13360;48.152;-1.788;2023-02-15T13:42:05;102957.00;;;11.89;100.00
25430;BME280;13360;48.152;-1.788;2023-02-15T13:47:37;102999.03;;;12.03;100.00
25430;BME280;13360;48.152;-1.788;2023-02-15T13:50:13;103001.47;;;11.99;100.00
25430;BME280;13360;48.152;-1.788;2023-02-15T13:55:37;103021.97;;;11.98;100.00
25430;BME280;13360;48.152;-1.788;2023-02-15T13:58:21;103033.22;;;12.08;100.00
25430;BME280;13360;48.152;-1.788;2023-02-15T14:01:09;103035.22;;;12.13;100.00
25430;BME280;13360;48.152;-1.788;2023-02-15T14:14:31;103021.88;;;12.27;100.00
25430;BME280;13360;48.152;-1.788;2023-02-15T14:24:44;102888.94;;;12.32;100.00
25430;BME280;13360;48.152;-1.788;2023-02-15T14:29:51;102878.38;;;12.29;100.00
25430;BME280;13360;48.152;-1.788;2023-02-15T14:32:29;102866.63;;;12.21;100.00
25430;BME280;13360;48.152;-1.788;2023-02-15T14:34:59;102880.38;;;12.33;100.00
25430;BME280;13360;48.152;-1.788;2023-02-15T14:49:32;102814.66;;;12.29;100.00
25430;BME280;13360;48.152;-1.788;2023-02-15T14:52:04;102829.72;;;12.38;100.00
25430;BME280;13360;48.152;-1.788;2023-02-15T14:59:25;102804.84;;;12.21;100.00
25430;BME280;13360;48.152;-1.788;2023-02-15T15:02:00;102799.56;;;12.19;100.00
25430;BME280;13360;48.152;-1.788;2023-02-15T15:04:34;102808.44;;;12.21;100.00
25430;BME280;13360;48.152;-1.788;2023-02-15T15:07:21;102805.16;;;12.25;100.00
25430;BME280;13360;48.152;-1.788;2023-02-15T15:12:48;102802.63;;;12.23;100.00
25430;BME280;13360;48.152;-1.788;2023-02-15T15:15:32;102794.84;;;12.20;100.00